Emslake — V2FL4 — position and weather

sailwx.info

Track history (hours):
 
Tides and Currents Weather Stations Pressure Air Temp Water Temp Dewpoint Dewpoint Depression Visibility Wind Speed Wind Dir Waves Ship Positions

Emslake

Last reported at 2016-Jun-29 12:14 UTC. Time now 2016-Jun-29 20:14 UTC.
Position N 59°49' E 022°57'.

Length 100 m; draft 4 m.

Type: Cargo ship. MMSI: 305712000.

Date/timePositionNaut miles runAvg speedWind from/ knotsBaromVisibWave heightAir tempDewpointWater temp
2016-Jun-29 12:14N 59°49' E 022°57'0 0.0
2016-Jun-29 11:32N 59°49' E 022°57'0 0.0
2016-Jun-29 10:26N 59°49' E 022°57'0 0.0
2016-Jun-29 08:34N 59°49' E 022°57'6 6.5
2016-Jun-29 07:34N 59°44' E 023°04'4 3.9
2016-Jun-29 06:33N 59°41' E 022°59'0 0.0
2016-Jun-29 05:33N 59°41' E 022°59'0 0.0
2016-Jun-29 04:30N 59°41' E 022°59'0 0.0
2016-Jun-29 03:33N 59°41' E 022°59'0 0.0
2016-Jun-29 02:33N 59°41' E 022°59'0 0.0
2016-Jun-29 01:30N 59°41' E 022°59'0 0.0
2016-Jun-29 00:30N 59°41' E 022°59'0 0.0
2016-Jun-28 23:33N 59°41' E 022°59'0 0.0
2016-Jun-28 22:30N 59°41' E 022°59'0 0.0
2016-Jun-28 21:33N 59°41' E 022°59'0 0.0
2016-Jun-28 20:30N 59°41' E 022°59'0 0.0
2016-Jun-28 19:33N 59°41' E 022°59'0 0.0
2016-Jun-28 18:33N 59°41' E 022°59'0 0.0
2016-Jun-28 17:27N 59°41' E 022°59'0 0.0
2016-Jun-28 16:33N 59°41' E 022°59'5 5.5
2016-Jun-28 15:33N 59°39' E 022°49'9 9.0
2016-Jun-28 14:33N 59°35' E 022°33'9 9.1
2016-Jun-28 13:34N 59°32' E 022°16'9 9.1
2016-Jun-28 12:33N 59°28' E 021°60'147 8.9
2016-Jun-27 20:04N 58°38' E 017°31'5 9.0
2016-Jun-27 19:34N 58°37' E 017°23'8 8.1
2016-Jun-27 18:33N 58°39' E 017°08'1 0.7
2016-Jun-27 17:26N 58°40' E 017°07'0 0.0
2016-Jun-27 07:32N 58°40' E 017°07'0 0.0
2016-Jun-26 05:23N 58°40' E 017°07'0 0.0
2016-Jun-26 02:11N 58°40' E 017°07'0 0.0
2016-Jun-26 01:29N 58°40' E 017°07'0 0.0
2016-Jun-26 00:29N 58°40' E 017°07'0 0.0
2016-Jun-25 23:32N 58°40' E 017°07'0 0.0
2016-Jun-25 22:29N 58°40' E 017°07'0 0.0
2016-Jun-25 21:29N 58°40' E 017°07'0 0.0
2016-Jun-25 20:32N 58°40' E 017°07'0 0.0
2016-Jun-25 19:32N 58°40' E 017°07'0 0.0
2016-Jun-25 18:32N 58°40' E 017°07'0 0.0
2016-Jun-25 17:32N 58°40' E 017°07'0 0.0
2016-Jun-25 16:23N 58°40' E 017°07'0 0.0
2016-Jun-25 15:29N 58°40' E 017°07'0 0.0
2016-Jun-25 05:23N 58°40' E 017°07'0 0.0
2016-Jun-24 21:17N 58°40' E 017°07'185 5.3
2016-Jun-23 10:12N 59°39' E 022°48'6 9.8
2016-Jun-23 09:33N 59°41' E 022°59'  
2016-Jun-20 18:20N 59°49' E 022°57'7 8.6
2016-Jun-20 17:33N 59°43' E 023°04'3 3.4
2016-Jun-20 16:32N 59°40' E 022°59'0 0.0
2016-Jun-20 15:32N 59°40' E 022°59'0 0.0
2016-Jun-20 14:32N 59°41' E 022°59'0 0.0
2016-Jun-20 13:32N 59°40' E 022°59'0 0.0
2016-Jun-20 12:29N 59°41' E 022°59'0 0.0
2016-Jun-20 11:33N 59°41' E 022°59'0 0.0
2016-Jun-20 10:32N 59°41' E 022°59'0 0.0
2016-Jun-20 09:32N 59°41' E 022°59'0 0.0
2016-Jun-20 08:32N 59°41' E 022°59'0 0.0
2016-Jun-20 07:32N 59°41' E 022°59'0 0.0
2016-Jun-20 06:32N 59°41' E 022°59'0 0.0
2016-Jun-20 05:32N 59°41' E 022°59'0 0.0
2016-Jun-20 04:29N 59°41' E 022°59'0 0.0
2016-Jun-20 03:26N 59°41' E 022°59'0 0.0
2016-Jun-20 02:32N 59°41' E 022°59'0 0.0
2016-Jun-20 01:32N 59°41' E 022°59'0 0.0
2016-Jun-20 00:32N 59°41' E 022°59'0 0.0
2016-Jun-19 23:29N 59°41' E 022°59'0 0.0
2016-Jun-19 22:20N 59°41' E 022°59'0 0.0
2016-Jun-19 21:32N 59°41' E 022°59'0 0.1
2016-Jun-19 20:32N 59°41' E 022°59'0 0.0
2016-Jun-19 19:32N 59°41' E 022°59'0 0.0
2016-Jun-19 18:32N 59°41' E 022°59'0 0.0
2016-Jun-19 17:26N 59°41' E 022°59'0 0.0
2016-Jun-19 16:32N 59°41' E 022°59'0 0.0
2016-Jun-19 15:32N 59°41' E 022°59'0 0.0
2016-Jun-19 14:32N 59°41' E 022°59'0 0.0
2016-Jun-19 13:32N 59°41' E 022°59'0 0.0
2016-Jun-19 12:32N 59°40' E 022°59'  
Track history (hours):
 
Tides and Currents Weather Stations Pressure Air Temp Water Temp Dewpoint Dewpoint Depression Visibility Wind Speed Wind Dir Waves Ship Positions

Emslake

Last reported at 2016-Jun-29 12:14 UTC. Time now 2016-Jun-29 20:14 UTC.
Position N 59°49' E 022°57'.

Length 100 m; draft 4 m.

Type: Cargo ship. MMSI: 305712000.

Date/timePositionNaut miles runAvg speedWind from/ knotsBaromVisibWave heightAir tempDewpointWater temp
2016-Jun-29 12:14N 59°49' E 022°57'0 0.0
2016-Jun-29 11:32N 59°49' E 022°57'0 0.0
2016-Jun-29 10:26N 59°49' E 022°57'0 0.0
2016-Jun-29 08:34N 59°49' E 022°57'6 6.5
2016-Jun-29 07:34N 59°44' E 023°04'4 3.9
2016-Jun-29 06:33N 59°41' E 022°59'0 0.0
2016-Jun-29 05:33N 59°41' E 022°59'0 0.0
2016-Jun-29 04:30N 59°41' E 022°59'0 0.0
2016-Jun-29 03:33N 59°41' E 022°59'0 0.0
2016-Jun-29 02:33N 59°41' E 022°59'0 0.0
2016-Jun-29 01:30N 59°41' E 022°59'0 0.0
2016-Jun-29 00:30N 59°41' E 022°59'0 0.0
2016-Jun-28 23:33N 59°41' E 022°59'0 0.0
2016-Jun-28 22:30N 59°41' E 022°59'0 0.0
2016-Jun-28 21:33N 59°41' E 022°59'0 0.0
2016-Jun-28 20:30N 59°41' E 022°59'0 0.0
2016-Jun-28 19:33N 59°41' E 022°59'0 0.0
2016-Jun-28 18:33N 59°41' E 022°59'0 0.0
2016-Jun-28 17:27N 59°41' E 022°59'0 0.0
2016-Jun-28 16:33N 59°41' E 022°59'5 5.5
2016-Jun-28 15:33N 59°39' E 022°49'9 9.0
2016-Jun-28 14:33N 59°35' E 022°33'9 9.1
2016-Jun-28 13:34N 59°32' E 022°16'9 9.1
2016-Jun-28 12:33N 59°28' E 021°60'147 8.9
2016-Jun-27 20:04N 58°38' E 017°31'5 9.0
2016-Jun-27 19:34N 58°37' E 017°23'8 8.1
2016-Jun-27 18:33N 58°39' E 017°08'1 0.7
2016-Jun-27 17:26N 58°40' E 017°07'0 0.0
2016-Jun-27 07:32N 58°40' E 017°07'0 0.0
2016-Jun-26 05:23N 58°40' E 017°07'0 0.0
2016-Jun-26 02:11N 58°40' E 017°07'0 0.0
2016-Jun-26 01:29N 58°40' E 017°07'0 0.0
2016-Jun-26 00:29N 58°40' E 017°07'0 0.0
2016-Jun-25 23:32N 58°40' E 017°07'0 0.0
2016-Jun-25 22:29N 58°40' E 017°07'0 0.0
2016-Jun-25 21:29N 58°40' E 017°07'0 0.0
2016-Jun-25 20:32N 58°40' E 017°07'0 0.0
2016-Jun-25 19:32N 58°40' E 017°07'0 0.0
2016-Jun-25 18:32N 58°40' E 017°07'0 0.0
2016-Jun-25 17:32N 58°40' E 017°07'0 0.0
2016-Jun-25 16:23N 58°40' E 017°07'0 0.0
2016-Jun-25 15:29N 58°40' E 017°07'0 0.0
2016-Jun-25 05:23N 58°40' E 017°07'0 0.0
2016-Jun-24 21:17N 58°40' E 017°07'185 5.3
2016-Jun-23 10:12N 59°39' E 022°48'6 9.8
2016-Jun-23 09:33N 59°41' E 022°59'  
2016-Jun-20 18:20N 59°49' E 022°57'7 8.6
2016-Jun-20 17:33N 59°43' E 023°04'3 3.4
2016-Jun-20 16:32N 59°40' E 022°59'0 0.0
2016-Jun-20 15:32N 59°40' E 022°59'0 0.0
2016-Jun-20 14:32N 59°41' E 022°59'0 0.0
2016-Jun-20 13:32N 59°40' E 022°59'0 0.0
2016-Jun-20 12:29N 59°41' E 022°59'0 0.0
2016-Jun-20 11:33N 59°41' E 022°59'0 0.0
2016-Jun-20 10:32N 59°41' E 022°59'0 0.0
2016-Jun-20 09:32N 59°41' E 022°59'0 0.0
2016-Jun-20 08:32N 59°41' E 022°59'0 0.0
2016-Jun-20 07:32N 59°41' E 022°59'0 0.0
2016-Jun-20 06:32N 59°41' E 022°59'0 0.0
2016-Jun-20 05:32N 59°41' E 022°59'0 0.0
2016-Jun-20 04:29N 59°41' E 022°59'0 0.0
2016-Jun-20 03:26N 59°41' E 022°59'0 0.0
2016-Jun-20 02:32N 59°41' E 022°59'0 0.0
2016-Jun-20 01:32N 59°41' E 022°59'0 0.0
2016-Jun-20 00:32N 59°41' E 022°59'0 0.0
2016-Jun-19 23:29N 59°41' E 022°59'0 0.0
2016-Jun-19 22:20N 59°41' E 022°59'0 0.0
2016-Jun-19 21:32N 59°41' E 022°59'0 0.1
2016-Jun-19 20:32N 59°41' E 022°59'0 0.0
2016-Jun-19 19:32N 59°41' E 022°59'0 0.0
2016-Jun-19 18:32N 59°41' E 022°59'0 0.0
2016-Jun-19 17:26N 59°41' E 022°59'0 0.0
2016-Jun-19 16:32N 59°41' E 022°59'0 0.0
2016-Jun-19 15:32N 59°41' E 022°59'0 0.0
2016-Jun-19 14:32N 59°41' E 022°59'0 0.0
2016-Jun-19 13:32N 59°41' E 022°59'0 0.0
2016-Jun-19 12:32N 59°40' E 022°59'  

Dump ship's entire track history